sensor_id;sensor_type;location;lat;lon;timestamp;P1;durP1;ratioP1;P2;durP2;ratioP2
70052;SDS011;57398;52.032;4.376;2023-04-28T00:01:52;9.02;;;4.35;;
70052;SDS011;57398;52.032;4.376;2023-04-28T00:04:40;9.38;;;4.22;;
70052;SDS011;57398;52.032;4.376;2023-04-28T00:07:28;11.18;;;4.63;;
70052;SDS011;57398;52.032;4.376;2023-04-28T00:10:17;11.48;;;4.55;;
70052;SDS011;57398;52.032;4.376;2023-04-28T00:13:06;10.17;;;5.07;;
70052;SDS011;57398;52.032;4.376;2023-04-28T00:15:54;10.68;;;4.80;;
70052;SDS011;57398;52.032;4.376;2023-04-28T00:18:42;10.40;;;4.38;;
70052;SDS011;57398;52.032;4.376;2023-04-28T00:21:30;12.55;;;4.97;;
70052;SDS011;57398;52.032;4.376;2023-04-28T00:24:18;9.48;;;4.43;;
70052;SDS011;57398;52.032;4.376;2023-04-28T00:27:07;12.03;;;4.90;;
70052;SDS011;57398;52.032;4.376;2023-04-28T00:29:56;9.23;;;4.30;;
70052;SDS011;57398;52.032;4.376;2023-04-28T00:32:44;9.85;;;4.60;;
70052;SDS011;57398;52.032;4.376;2023-04-28T00:35:32;9.82;;;4.55;;
70052;SDS011;57398;52.032;4.376;2023-04-28T00:38:20;10.57;;;4.85;;
70052;SDS011;57398;52.032;4.376;2023-04-28T00:41:11;10.00;;;4.83;;
70052;SDS011;57398;52.032;4.376;2023-04-28T00:44:00;11.80;;;5.10;;
70052;SDS011;57398;52.032;4.376;2023-04-28T00:46:49;8.73;;;4.40;;
70052;SDS011;57398;52.032;4.376;2023-04-28T00:49:37;10.88;;;4.60;;
70052;SDS011;57398;52.032;4.376;2023-04-28T00:52:26;11.00;;;4.60;;
70052;SDS011;57398;52.032;4.376;2023-04-28T00:55:14;11.00;;;4.90;;
70052;SDS011;57398;52.032;4.376;2023-04-28T00:58:03;10.18;;;4.47;;
70052;SDS011;57398;52.032;4.376;2023-04-28T01:00:52;11.35;;;4.93;;
70052;SDS011;57398;52.032;4.376;2023-04-28T01:03:41;10.15;;;4.68;;
70052;SDS011;57398;52.032;4.376;2023-04-28T01:06:30;12.77;;;4.75;;
70052;SDS011;57398;52.032;4.376;2023-04-28T01:09:18;11.53;;;4.60;;
70052;SDS011;57398;52.032;4.376;2023-04-28T01:12:07;9.13;;;4.30;;
70052;SDS011;57398;52.032;4.376;2023-04-28T01:14:55;10.45;;;4.90;;
70052;SDS011;57398;52.032;4.376;2023-04-28T01:17:43;10.90;;;4.55;;
70052;SDS011;57398;52.032;4.376;2023-04-28T01:20:33;11.77;;;4.25;;
70052;SDS011;57398;52.032;4.376;2023-04-28T01:23:21;10.43;;;4.80;;
70052;SDS011;57398;52.032;4.376;2023-04-28T01:26:11;9.10;;;4.28;;
70052;SDS011;57398;52.032;4.376;2023-04-28T01:28:59;9.38;;;4.20;;
70052;SDS011;57398;52.032;4.376;2023-04-28T01:31:47;11.23;;;4.65;;
70052;SDS011;57398;52.032;4.376;2023-04-28T01:34:35;10.70;;;4.68;;
70052;SDS011;57398;52.032;4.376;2023-04-28T01:37:23;11.30;;;4.87;;
70052;SDS011;57398;52.032;4.376;2023-04-28T01:40:12;11.80;;;5.47;;
70052;SDS011;57398;52.032;4.376;2023-04-28T01:43:01;11.55;;;4.70;;
70052;SDS011;57398;52.032;4.376;2023-04-28T01:45:49;10.88;;;4.55;;
70052;SDS011;57398;52.032;4.376;2023-04-28T01:48:38;12.00;;;4.80;;
70052;SDS011;57398;52.032;4.376;2023-04-28T01:51:26;11.60;;;4.53;;
70052;SDS011;57398;52.032;4.376;2023-04-28T01:54:14;11.32;;;4.90;;
70052;SDS011;57398;52.032;4.376;2023-04-28T01:57:02;12.55;;;4.93;;
70052;SDS011;57398;52.032;4.376;2023-04-28T01:59:52;11.35;;;4.65;;
70052;SDS011;57398;52.032;4.376;2023-04-28T02:02:40;11.10;;;4.90;;
70052;SDS011;57398;52.032;4.376;2023-04-28T02:05:28;10.07;;;4.73;;
70052;SDS011;57398;52.032;4.376;2023-04-28T02:08:16;10.73;;;4.80;;
70052;SDS011;57398;52.032;4.376;2023-04-28T02:11:04;13.32;;;4.97;;
70052;SDS011;57398;52.032;4.376;2023-04-28T02:13:52;11.73;;;5.15;;
70052;SDS011;57398;52.032;4.376;2023-04-28T02:16:42;11.70;;;4.78;;
70052;SDS011;57398;52.032;4.376;2023-04-28T02:19:30;11.53;;;4.63;;
70052;SDS011;57398;52.032;4.376;2023-04-28T02:22:18;11.85;;;4.85;;
70052;SDS011;57398;52.032;4.376;2023-04-28T02:25:07;11.25;;;5.00;;
70052;SDS011;57398;52.032;4.376;2023-04-28T02:27:55;11.60;;;5.22;;
70052;SDS011;57398;52.032;4.376;2023-04-28T02:30:44;12.60;;;5.10;;
70052;SDS011;57398;52.032;4.376;2023-04-28T02:33:34;12.80;;;5.10;;
70052;SDS011;57398;52.032;4.376;2023-04-28T02:36:22;10.27;;;4.95;;
70052;SDS011;57398;52.032;4.376;2023-04-28T02:39:10;10.25;;;4.90;;
70052;SDS011;57398;52.032;4.376;2023-04-28T02:41:59;10.95;;;4.72;;
70052;SDS011;57398;52.032;4.376;2023-04-28T02:44:47;12.35;;;4.70;;
70052;SDS011;57398;52.032;4.376;2023-04-28T02:47:35;12.90;;;4.93;;
70052;SDS011;57398;52.032;4.376;2023-04-28T02:50:24;11.27;;;5.22;;
70052;SDS011;57398;52.032;4.376;2023-04-28T02:53:13;11.02;;;5.22;;
70052;SDS011;57398;52.032;4.376;2023-04-28T02:56:01;10.88;;;5.28;;
70052;SDS011;57398;52.032;4.376;2023-04-28T02:58:50;12.20;;;5.78;;
70052;SDS011;57398;52.032;4.376;2023-04-28T03:01:38;11.43;;;4.90;;
70052;SDS011;57398;52.032;4.376;2023-04-28T03:04:26;10.82;;;4.70;;
70052;SDS011;57398;52.032;4.376;2023-04-28T03:07:15;11.13;;;4.93;;
70052;SDS011;57398;52.032;4.376;2023-04-28T03:10:04;11.05;;;5.25;;
70052;SDS011;57398;52.032;4.376;2023-04-28T03:12:52;11.15;;;5.20;;
70052;SDS011;57398;52.032;4.376;2023-04-28T03:15:40;11.93;;;5.23;;
70052;SDS011;57398;52.032;4.376;2023-04-28T03:18:28;10.80;;;5.28;;
70052;SDS011;57398;52.032;4.376;2023-04-28T03:21:16;11.13;;;5.10;;
70052;SDS011;57398;52.032;4.376;2023-04-28T03:24:06;11.45;;;5.22;;
70052;SDS011;57398;52.032;4.376;2023-04-28T03:26:54;13.30;;;5.55;;
70052;SDS011;57398;52.032;4.376;2023-04-28T03:29:42;11.97;;;5.20;;
70052;SDS011;57398;52.032;4.376;2023-04-28T03:32:30;12.27;;;5.30;;
70052;SDS011;57398;52.032;4.376;2023-04-28T03:35:19;11.93;;;5.20;;
70052;SDS011;57398;52.032;4.376;2023-04-28T03:38:07;11.43;;;5.32;;
70052;SDS011;57398;52.032;4.376;2023-04-28T03:40:57;12.93;;;5.50;;
70052;SDS011;57398;52.032;4.376;2023-04-28T03:43:45;13.57;;;5.50;;
70052;SDS011;57398;52.032;4.376;2023-04-28T03:46:33;13.23;;;4.90;;
70052;SDS011;57398;52.032;4.376;2023-04-28T03:49:22;13.32;;;5.70;;
70052;SDS011;57398;52.032;4.376;2023-04-28T03:52:10;11.25;;;5.07;;
70052;SDS011;57398;52.032;4.376;2023-04-28T03:54:58;12.90;;;5.00;;
70052;SDS011;57398;52.032;4.376;2023-04-28T03:57:48;12.30;;;4.87;;
70052;SDS011;57398;52.032;4.376;2023-04-28T04:00:36;11.55;;;5.15;;
70052;SDS011;57398;52.032;4.376;2023-04-28T04:03:24;12.88;;;5.60;;
70052;SDS011;57398;52.032;4.376;2023-04-28T04:06:13;12.82;;;4.68;;
70052;SDS011;57398;52.032;4.376;2023-04-28T04:09:01;11.98;;;5.15;;
70052;SDS011;57398;52.032;4.376;2023-04-28T04:11:49;10.97;;;5.20;;
70052;SDS011;57398;52.032;4.376;2023-04-28T04:14:38;13.18;;;5.40;;
70052;SDS011;57398;52.032;4.376;2023-04-28T04:17:27;12.20;;;5.30;;
70052;SDS011;57398;52.032;4.376;2023-04-28T04:20:15;12.02;;;5.25;;
70052;SDS011;57398;52.032;4.376;2023-04-28T04:23:03;14.95;;;6.00;;
70052;SDS011;57398;52.032;4.376;2023-04-28T04:25:51;11.33;;;5.57;;
70052;SDS011;57398;52.032;4.376;2023-04-28T04:28:40;11.02;;;5.00;;
70052;SDS011;57398;52.032;4.376;2023-04-28T04:31:29;10.70;;;5.10;;
70052;SDS011;57398;52.032;4.376;2023-04-28T04:34:18;12.13;;;5.43;;
70052;SDS011;57398;52.032;4.376;2023-04-28T04:37:07;12.82;;;5.88;;
70052;SDS011;57398;52.032;4.376;2023-04-28T04:39:56;14.00;;;5.67;;
70052;SDS011;57398;52.032;4.376;2023-04-28T04:42:44;13.15;;;6.00;;
70052;SDS011;57398;52.032;4.376;2023-04-28T04:45:32;15.20;;;6.40;;
70052;SDS011;57398;52.032;4.376;2023-04-28T04:48:21;14.27;;;5.95;;
70052;SDS011;57398;52.032;4.376;2023-04-28T04:51:09;16.73;;;6.40;;
70052;SDS011;57398;52.032;4.376;2023-04-28T04:53:58;13.70;;;5.87;;
70052;SDS011;57398;52.032;4.376;2023-04-28T04:56:46;13.98;;;6.20;;
70052;SDS011;57398;52.032;4.376;2023-04-28T04:59:34;14.60;;;6.10;;
70052;SDS011;57398;52.032;4.376;2023-04-28T05:02:22;14.00;;;6.15;;
70052;SDS011;57398;52.032;4.376;2023-04-28T05:05:11;15.43;;;6.63;;
70052;SDS011;57398;52.032;4.376;2023-04-28T05:08:07;16.27;;;6.60;;
70052;SDS011;57398;52.032;4.376;2023-04-28T05:10:55;13.38;;;6.65;;
70052;SDS011;57398;52.032;4.376;2023-04-28T05:13:43;13.90;;;6.43;;
70052;SDS011;57398;52.032;4.376;2023-04-28T05:16:31;17.80;;;6.60;;
70052;SDS011;57398;52.032;4.376;2023-04-28T05:19:20;17.42;;;7.40;;
70052;SDS011;57398;52.032;4.376;2023-04-28T05:22:09;15.23;;;6.20;;
70052;SDS011;57398;52.032;4.376;2023-04-28T05:24:57;14.48;;;6.53;;
70052;SDS011;57398;52.032;4.376;2023-04-28T05:27:45;15.40;;;6.85;;
70052;SDS011;57398;52.032;4.376;2023-04-28T05:30:33;18.05;;;7.55;;
70052;SDS011;57398;52.032;4.376;2023-04-28T05:33:22;16.35;;;7.35;;
70052;SDS011;57398;52.032;4.376;2023-04-28T05:36:10;19.50;;;7.77;;
70052;SDS011;57398;52.032;4.376;2023-04-28T05:39:00;16.42;;;7.70;;
70052;SDS011;57398;52.032;4.376;2023-04-28T05:41:48;18.25;;;7.43;;
70052;SDS011;57398;52.032;4.376;2023-04-28T05:44:39;16.75;;;7.68;;
70052;SDS011;57398;52.032;4.376;2023-04-28T05:47:28;19.08;;;8.60;;
70052;SDS011;57398;52.032;4.376;2023-04-28T05:50:17;17.17;;;8.40;;
70052;SDS011;57398;52.032;4.376;2023-04-28T05:53:05;20.13;;;8.73;;
70052;SDS011;57398;52.032;4.376;2023-04-28T05:55:54;17.67;;;8.20;;
70052;SDS011;57398;52.032;4.376;2023-04-28T05:58:43;19.73;;;8.30;;
70052;SDS011;57398;52.032;4.376;2023-04-28T06:01:32;18.98;;;8.27;;
70052;SDS011;57398;52.032;4.376;2023-04-28T06:04:20;19.63;;;9.07;;
70052;SDS011;57398;52.032;4.376;2023-04-28T06:07:09;19.08;;;8.65;;
70052;SDS011;57398;52.032;4.376;2023-04-28T06:09:57;21.88;;;9.43;;
70052;SDS011;57398;52.032;4.376;2023-04-28T06:12:47;17.42;;;7.63;;
70052;SDS011;57398;52.032;4.376;2023-04-28T06:15:35;19.25;;;8.93;;
70052;SDS011;57398;52.032;4.376;2023-04-28T06:18:23;19.10;;;8.43;;
70052;SDS011;57398;52.032;4.376;2023-04-28T06:21:12;19.70;;;8.38;;
70052;SDS011;57398;52.032;4.376;2023-04-28T06:24:00;21.63;;;9.25;;
70052;SDS011;57398;52.032;4.376;2023-04-28T06:26:49;21.27;;;9.43;;
70052;SDS011;57398;52.032;4.376;2023-04-28T06:29:38;20.38;;;9.27;;
70052;SDS011;57398;52.032;4.376;2023-04-28T06:32:26;19.17;;;8.47;;
70052;SDS011;57398;52.032;4.376;2023-04-28T06:35:15;24.65;;;9.88;;
70052;SDS011;57398;52.032;4.376;2023-04-28T06:38:03;20.02;;;9.57;;
70052;SDS011;57398;52.032;4.376;2023-04-28T06:40:51;23.73;;;9.38;;
70052;SDS011;57398;52.032;4.376;2023-04-28T06:43:39;21.23;;;9.82;;
70052;SDS011;57398;52.032;4.376;2023-04-28T06:46:29;19.77;;;9.63;;
70052;SDS011;57398;52.032;4.376;2023-04-28T06:49:17;20.33;;;9.68;;
70052;SDS011;57398;52.032;4.376;2023-04-28T06:52:06;23.38;;;10.77;;
70052;SDS011;57398;52.032;4.376;2023-04-28T06:54:54;23.35;;;10.75;;
70052;SDS011;57398;52.032;4.376;2023-04-28T06:57:42;22.83;;;10.70;;
70052;SDS011;57398;52.032;4.376;2023-04-28T07:00:30;24.63;;;10.93;;
70052;SDS011;57398;52.032;4.376;2023-04-28T07:03:20;22.95;;;11.50;;
70052;SDS011;57398;52.032;4.376;2023-04-28T07:06:08;24.58;;;11.27;;
70052;SDS011;57398;52.032;4.376;2023-04-28T07:08:57;24.55;;;10.57;;
70052;SDS011;57398;52.032;4.376;2023-04-28T07:11:45;23.08;;;11.10;;
70052;SDS011;57398;52.032;4.376;2023-04-28T07:14:33;25.23;;;11.70;;
70052;SDS011;57398;52.032;4.376;2023-04-28T07:17:21;24.20;;;11.13;;
70052;SDS011;57398;52.032;4.376;2023-04-28T07:20:11;24.67;;;11.88;;
70052;SDS011;57398;52.032;4.376;2023-04-28T07:23:01;24.27;;;11.65;;
70052;SDS011;57398;52.032;4.376;2023-04-28T07:25:49;27.00;;;11.70;;
70052;SDS011;57398;52.032;4.376;2023-04-28T07:28:37;26.00;;;12.17;;
70052;SDS011;57398;52.032;4.376;2023-04-28T07:31:25;26.52;;;12.32;;
70052;SDS011;57398;52.032;4.376;2023-04-28T07:34:14;25.35;;;12.77;;
70052;SDS011;57398;52.032;4.376;2023-04-28T07:37:04;25.95;;;13.20;;
70052;SDS011;57398;52.032;4.376;2023-04-28T07:39:53;25.50;;;12.32;;
70052;SDS011;57398;52.032;4.376;2023-04-28T07:42:43;27.37;;;12.63;;
70052;SDS011;57398;52.032;4.376;2023-04-28T07:45:31;27.10;;;13.05;;
70052;SDS011;57398;52.032;4.376;2023-04-28T07:48:19;29.65;;;13.07;;
70052;SDS011;57398;52.032;4.376;2023-04-28T07:51:07;27.98;;;13.68;;
70052;SDS011;57398;52.032;4.376;2023-04-28T07:53:57;29.08;;;13.60;;
70052;SDS011;57398;52.032;4.376;2023-04-28T07:56:46;27.70;;;13.23;;
70052;SDS011;57398;52.032;4.376;2023-04-28T07:59:34;28.20;;;13.15;;
70052;SDS011;57398;52.032;4.376;2023-04-28T08:02:22;27.42;;;12.85;;
70052;SDS011;57398;52.032;4.376;2023-04-28T08:05:11;28.85;;;14.07;;
70052;SDS011;57398;52.032;4.376;2023-04-28T08:08:00;27.48;;;12.85;;
70052;SDS011;57398;52.032;4.376;2023-04-28T08:10:49;27.17;;;14.33;;
70052;SDS011;57398;52.032;4.376;2023-04-28T08:13:38;28.63;;;13.15;;
70052;SDS011;57398;52.032;4.376;2023-04-28T08:16:26;30.65;;;14.23;;
70052;SDS011;57398;52.032;4.376;2023-04-28T08:19:15;31.45;;;14.77;;
70052;SDS011;57398;52.032;4.376;2023-04-28T08:22:04;31.63;;;14.70;;
70052;SDS011;57398;52.032;4.376;2023-04-28T08:24:52;32.00;;;14.87;;
70052;SDS011;57398;52.032;4.376;2023-04-28T08:27:42;33.17;;;15.27;;
70052;SDS011;57398;52.032;4.376;2023-04-28T08:30:30;35.30;;;15.13;;
70052;SDS011;57398;52.032;4.376;2023-04-28T08:33:19;32.38;;;15.30;;
70052;SDS011;57398;52.032;4.376;2023-04-28T08:36:07;34.80;;;15.45;;
70052;SDS011;57398;52.032;4.376;2023-04-28T08:38:57;35.37;;;16.47;;
70052;SDS011;57398;52.032;4.376;2023-04-28T08:41:46;35.85;;;16.00;;
70052;SDS011;57398;52.032;4.376;2023-04-28T08:44:37;34.28;;;16.02;;
70052;SDS011;57398;52.032;4.376;2023-04-28T08:47:28;36.78;;;16.17;;
70052;SDS011;57398;52.032;4.376;2023-04-28T08:50:21;32.20;;;15.73;;
70052;SDS011;57398;52.032;4.376;2023-04-28T08:53:09;37.47;;;16.03;;
70052;SDS011;57398;52.032;4.376;2023-04-28T08:56:00;36.88;;;16.58;;
70052;SDS011;57398;52.032;4.376;2023-04-28T08:58:52;38.97;;;16.75;;
70052;SDS011;57398;52.032;4.376;2023-04-28T09:01:42;39.38;;;17.48;;
70052;SDS011;57398;52.032;4.376;2023-04-28T09:04:30;37.75;;;16.50;;
70052;SDS011;57398;52.032;4.376;2023-04-28T09:07:19;37.07;;;16.63;;
70052;SDS011;57398;52.032;4.376;2023-04-28T09:10:17;35.70;;;15.57;;
70052;SDS011;57398;52.032;4.376;2023-04-28T09:13:06;35.60;;;15.93;;
70052;SDS011;57398;52.032;4.376;2023-04-28T09:15:58;32.65;;;15.10;;
70052;SDS011;57398;52.032;4.376;2023-04-28T09:18:55;30.85;;;14.85;;
70052;SDS011;57398;52.032;4.376;2023-04-28T09:21:47;29.50;;;13.83;;
70052;SDS011;57398;52.032;4.376;2023-04-28T09:24:37;26.15;;;12.35;;
70052;SDS011;57398;52.032;4.376;2023-04-28T09:27:27;26.08;;;12.48;;
70052;SDS011;57398;52.032;4.376;2023-04-28T09:30:15;24.30;;;12.02;;
70052;SDS011;57398;52.032;4.376;2023-04-28T09:33:04;21.63;;;10.63;;
70052;SDS011;57398;52.032;4.376;2023-04-28T09:35:58;20.73;;;9.57;;
70052;SDS011;57398;52.032;4.376;2023-04-28T09:38:46;15.00;;;7.78;;
70052;SDS011;57398;52.032;4.376;2023-04-28T09:41:35;14.75;;;6.97;;
70052;SDS011;57398;52.032;4.376;2023-04-28T09:44:25;13.32;;;6.53;;
70052;SDS011;57398;52.032;4.376;2023-04-28T09:47:18;13.65;;;7.03;;
70052;SDS011;57398;52.032;4.376;2023-04-28T09:50:08;11.50;;;5.90;;
70052;SDS011;57398;52.032;4.376;2023-04-28T09:53:01;10.23;;;4.82;;
70052;SDS011;57398;52.032;4.376;2023-04-28T09:55:50;12.80;;;5.55;;
70052;SDS011;57398;52.032;4.376;2023-04-28T09:58:40;12.88;;;5.93;;
70052;SDS011;57398;52.032;4.376;2023-04-28T10:01:31;10.43;;;5.05;;
70052;SDS011;57398;52.032;4.376;2023-04-28T10:04:22;11.70;;;5.43;;
70052;SDS011;57398;52.032;4.376;2023-04-28T10:07:11;11.68;;;5.32;;
70052;SDS011;57398;52.032;4.376;2023-04-28T10:10:03;12.90;;;5.53;;
70052;SDS011;57398;52.032;4.376;2023-04-28T10:12:53;11.60;;;4.95;;
70052;SDS011;57398;52.032;4.376;2023-04-28T10:15:42;12.95;;;5.65;;
70052;SDS011;57398;52.032;4.376;2023-04-28T10:18:31;13.97;;;5.80;;
70052;SDS011;57398;52.032;4.376;2023-04-28T10:21:20;13.77;;;5.60;;
70052;SDS011;57398;52.032;4.376;2023-04-28T10:24:14;14.13;;;5.85;;
70052;SDS011;57398;52.032;4.376;2023-04-28T10:27:06;15.05;;;5.55;;
70052;SDS011;57398;52.032;4.376;2023-04-28T10:30:08;14.77;;;5.68;;
70052;SDS011;57398;52.032;4.376;2023-04-28T10:33:21;16.03;;;5.80;;
70052;SDS011;57398;52.032;4.376;2023-04-28T10:39:34;13.57;;;5.20;;
70052;SDS011;57398;52.032;4.376;2023-04-28T10:42:51;12.25;;;4.72;;
70052;SDS011;57398;52.032;4.376;2023-04-28T10:48:54;9.30;;;3.77;;
70052;SDS011;57398;52.032;4.376;2023-04-28T10:51:43;10.40;;;3.90;;
70052;SDS011;57398;52.032;4.376;2023-04-28T10:54:31;10.02;;;3.70;;
70052;SDS011;57398;52.032;4.376;2023-04-28T10:57:20;9.32;;;3.60;;
70052;SDS011;57398;52.032;4.376;2023-04-28T11:03:37;9.17;;;3.40;;
70052;SDS011;57398;52.032;4.376;2023-04-28T11:06:37;8.63;;;3.17;;
70052;SDS011;57398;52.032;4.376;2023-04-28T11:12:35;6.30;;;2.63;;
70052;SDS011;57398;52.032;4.376;2023-04-28T11:15:49;4.93;;;1.92;;
70052;SDS011;57398;52.032;4.376;2023-04-28T11:18:54;7.33;;;2.53;;
70052;SDS011;57398;52.032;4.376;2023-04-28T11:21:44;8.50;;;3.05;;
70052;SDS011;57398;52.032;4.376;2023-04-28T11:24:33;8.82;;;3.58;;
70052;SDS011;57398;52.032;4.376;2023-04-28T11:27:22;11.38;;;4.00;;
70052;SDS011;57398;52.032;4.376;2023-04-28T11:30:20;11.85;;;4.88;;
70052;SDS011;57398;52.032;4.376;2023-04-28T11:33:12;13.23;;;5.50;;
70052;SDS011;57398;52.032;4.376;2023-04-28T11:36:00;12.63;;;5.32;;
70052;SDS011;57398;52.032;4.376;2023-04-28T11:38:51;12.35;;;5.28;;
70052;SDS011;57398;52.032;4.376;2023-04-28T11:41:41;12.75;;;5.93;;
70052;SDS011;57398;52.032;4.376;2023-04-28T11:44:30;11.88;;;5.38;;
70052;SDS011;57398;52.032;4.376;2023-04-28T11:47:27;8.97;;;4.33;;
70052;SDS011;57398;52.032;4.376;2023-04-28T11:50:18;9.43;;;4.80;;
70052;SDS011;57398;52.032;4.376;2023-04-28T11:56:28;7.45;;;3.33;;
70052;SDS011;57398;52.032;4.376;2023-04-28T11:59:17;6.45;;;3.08;;
70052;SDS011;57398;52.032;4.376;2023-04-28T12:02:10;5.93;;;2.83;;
70052;SDS011;57398;52.032;4.376;2023-04-28T12:05:04;6.35;;;3.20;;
70052;SDS011;57398;52.032;4.376;2023-04-28T12:07:54;6.15;;;2.83;;
70052;SDS011;57398;52.032;4.376;2023-04-28T12:10:42;6.35;;;3.00;;
70052;SDS011;57398;52.032;4.376;2023-04-28T12:13:30;7.10;;;3.67;;
70052;SDS011;57398;52.032;4.376;2023-04-28T12:16:35;5.73;;;3.00;;
70052;SDS011;57398;52.032;4.376;2023-04-28T12:19:24;5.97;;;3.10;;
70052;SDS011;57398;52.032;4.376;2023-04-28T12:22:12;6.85;;;3.33;;
70052;SDS011;57398;52.032;4.376;2023-04-28T12:25:05;8.13;;;3.38;;
70052;SDS011;57398;52.032;4.376;2023-04-28T12:27:57;7.20;;;3.47;;
70052;SDS011;57398;52.032;4.376;2023-04-28T12:30:47;9.23;;;3.70;;
70052;SDS011;57398;52.032;4.376;2023-04-28T12:33:36;7.97;;;3.70;;
70052;SDS011;57398;52.032;4.376;2023-04-28T12:36:25;8.68;;;3.70;;
70052;SDS011;57398;52.032;4.376;2023-04-28T12:39:14;9.23;;;4.40;;
70052;SDS011;57398;52.032;4.376;2023-04-28T12:42:07;12.40;;;3.95;;
70052;SDS011;57398;52.032;4.376;2023-04-28T12:44:55;9.53;;;4.20;;
70052;SDS011;57398;52.032;4.376;2023-04-28T12:47:44;8.60;;;3.97;;
70052;SDS011;57398;52.032;4.376;2023-04-28T12:50:33;8.35;;;3.63;;
70052;SDS011;57398;52.032;4.376;2023-04-28T12:53:21;8.35;;;3.45;;
70052;SDS011;57398;52.032;4.376;2023-04-28T12:56:10;10.40;;;3.38;;
70052;SDS011;57398;52.032;4.376;2023-04-28T12:58:59;9.43;;;3.37;;
70052;SDS011;57398;52.032;4.376;2023-04-28T13:01:50;11.27;;;4.45;;
70052;SDS011;57398;52.032;4.376;2023-04-28T13:04:38;12.35;;;4.40;;
70052;SDS011;57398;52.032;4.376;2023-04-28T13:07:28;13.10;;;5.18;;
70052;SDS011;57398;52.032;4.376;2023-04-28T13:10:17;13.68;;;5.10;;
70052;SDS011;57398;52.032;4.376;2023-04-28T13:13:06;12.80;;;4.90;;
70052;SDS011;57398;52.032;4.376;2023-04-28T13:15:56;13.68;;;5.25;;
70052;SDS011;57398;52.032;4.376;2023-04-28T13:18:44;11.95;;;4.63;;
70052;SDS011;57398;52.032;4.376;2023-04-28T13:21:34;13.10;;;4.97;;
70052;SDS011;57398;52.032;4.376;2023-04-28T13:24:24;13.80;;;4.93;;
70052;SDS011;57398;52.032;4.376;2023-04-28T13:27:13;11.13;;;4.30;;
70052;SDS011;57398;52.032;4.376;2023-04-28T13:30:01;11.93;;;4.55;;
70052;SDS011;57398;52.032;4.376;2023-04-28T13:32:52;13.10;;;4.50;;
70052;SDS011;57398;52.032;4.376;2023-04-28T13:35:42;12.48;;;4.18;;
70052;SDS011;57398;52.032;4.376;2023-04-28T13:38:31;10.35;;;4.38;;
70052;SDS011;57398;52.032;4.376;2023-04-28T13:41:19;9.30;;;3.50;;
70052;SDS011;57398;52.032;4.376;2023-04-28T13:44:07;10.00;;;3.60;;
70052;SDS011;57398;52.032;4.376;2023-04-28T13:46:56;10.35;;;3.80;;
70052;SDS011;57398;52.032;4.376;2023-04-28T13:49:46;11.05;;;3.50;;
70052;SDS011;57398;52.032;4.376;2023-04-28T13:52:34;11.40;;;4.07;;
70052;SDS011;57398;52.032;4.376;2023-04-28T13:55:23;14.13;;;4.17;;
70052;SDS011;57398;52.032;4.376;2023-04-28T13:58:13;11.80;;;4.05;;
70052;SDS011;57398;52.032;4.376;2023-04-28T14:01:02;13.18;;;4.70;;
70052;SDS011;57398;52.032;4.376;2023-04-28T14:03:51;11.68;;;3.85;;
70052;SDS011;57398;52.032;4.376;2023-04-28T14:06:41;13.27;;;4.57;;
70052;SDS011;57398;52.032;4.376;2023-04-28T14:09:29;13.20;;;4.70;;
70052;SDS011;57398;52.032;4.376;2023-04-28T14:12:18;11.75;;;4.35;;
70052;SDS011;57398;52.032;4.376;2023-04-28T14:15:07;15.73;;;4.63;;
70052;SDS011;57398;52.032;4.376;2023-04-28T14:17:56;13.25;;;4.55;;
70052;SDS011;57398;52.032;4.376;2023-04-28T14:20:45;12.57;;;4.90;;
70052;SDS011;57398;52.032;4.376;2023-04-28T14:23:34;13.07;;;4.27;;
70052;SDS011;57398;52.032;4.376;2023-04-28T14:26:23;11.40;;;4.22;;
70052;SDS011;57398;52.032;4.376;2023-04-28T14:29:11;12.70;;;4.47;;
70052;SDS011;57398;52.032;4.376;2023-04-28T14:31:59;9.27;;;3.67;;
70052;SDS011;57398;52.032;4.376;2023-04-28T14:34:48;11.00;;;4.00;;
70052;SDS011;57398;52.032;4.376;2023-04-28T14:37:36;12.37;;;4.00;;
70052;SDS011;57398;52.032;4.376;2023-04-28T14:40:26;13.38;;;4.50;;
70052;SDS011;57398;52.032;4.376;2023-04-28T14:43:14;12.27;;;4.32;;
70052;SDS011;57398;52.032;4.376;2023-04-28T14:46:02;10.85;;;3.58;;
70052;SDS011;57398;52.032;4.376;2023-04-28T14:48:51;13.68;;;3.83;;
70052;SDS011;57398;52.032;4.376;2023-04-28T14:51:40;13.30;;;4.17;;
70052;SDS011;57398;52.032;4.376;2023-04-28T14:54:28;9.70;;;4.45;;
70052;SDS011;57398;52.032;4.376;2023-04-28T14:57:20;9.10;;;3.38;;
70052;SDS011;57398;52.032;4.376;2023-04-28T15:00:09;11.45;;;4.00;;
70052;SDS011;57398;52.032;4.376;2023-04-28T15:02:58;11.90;;;4.20;;
70052;SDS011;57398;52.032;4.376;2023-04-28T15:05:46;12.23;;;3.90;;
70052;SDS011;57398;52.032;4.376;2023-04-28T15:08:35;9.70;;;3.83;;
70052;SDS011;57398;52.032;4.376;2023-04-28T15:11:23;8.55;;;3.30;;
70052;SDS011;57398;52.032;4.376;2023-04-28T15:14:15;10.85;;;3.50;;
70052;SDS011;57398;52.032;4.376;2023-04-28T15:17:04;7.80;;;3.42;;
70052;SDS011;57398;52.032;4.376;2023-04-28T15:19:52;9.57;;;3.43;;
70052;SDS011;57398;52.032;4.376;2023-04-28T15:22:40;8.85;;;3.55;;
70052;SDS011;57398;52.032;4.376;2023-04-28T15:25:30;10.32;;;3.67;;
70052;SDS011;57398;52.032;4.376;2023-04-28T15:28:18;10.85;;;4.30;;
70052;SDS011;57398;52.032;4.376;2023-04-28T15:31:07;11.23;;;4.25;;
70052;SDS011;57398;52.032;4.376;2023-04-28T15:33:56;10.43;;;3.70;;
70052;SDS011;57398;52.032;4.376;2023-04-28T15:36:44;9.73;;;3.60;;
70052;SDS011;57398;52.032;4.376;2023-04-28T15:39:32;11.93;;;3.97;;
70052;SDS011;57398;52.032;4.376;2023-04-28T15:42:21;9.82;;;3.90;;
70052;SDS011;57398;52.032;4.376;2023-04-28T15:45:09;7.55;;;3.28;;
70052;SDS011;57398;52.032;4.376;2023-04-28T15:48:00;8.53;;;3.10;;
70052;SDS011;57398;52.032;4.376;2023-04-28T15:50:50;7.95;;;2.65;;
70052;SDS011;57398;52.032;4.376;2023-04-28T15:53:38;7.50;;;2.85;;
70052;SDS011;57398;52.032;4.376;2023-04-28T15:56:27;10.75;;;3.60;;
70052;SDS011;57398;52.032;4.376;2023-04-28T15:59:16;9.23;;;3.00;;
70052;SDS011;57398;52.032;4.376;2023-04-28T16:02:04;8.70;;;3.27;;
70052;SDS011;57398;52.032;4.376;2023-04-28T16:04:55;9.38;;;3.45;;
70052;SDS011;57398;52.032;4.376;2023-04-28T16:07:45;7.70;;;3.42;;
70052;SDS011;57398;52.032;4.376;2023-04-28T16:10:35;8.90;;;3.20;;
70052;SDS011;57398;52.032;4.376;2023-04-28T16:13:28;10.30;;;3.30;;
70052;SDS011;57398;52.032;4.376;2023-04-28T16:16:18;9.53;;;3.30;;
70052;SDS011;57398;52.032;4.376;2023-04-28T16:19:11;10.50;;;3.15;;
70052;SDS011;57398;52.032;4.376;2023-04-28T16:22:02;14.32;;;4.00;;
70052;SDS011;57398;52.032;4.376;2023-04-28T16:24:50;9.85;;;3.53;;
70052;SDS011;57398;52.032;4.376;2023-04-28T16:27:39;10.23;;;3.20;;
70052;SDS011;57398;52.032;4.376;2023-04-28T16:30:27;9.40;;;3.23;;
70052;SDS011;57398;52.032;4.376;2023-04-28T16:33:15;9.48;;;2.95;;
70052;SDS011;57398;52.032;4.376;2023-04-28T16:36:03;8.90;;;2.60;;
70052;SDS011;57398;52.032;4.376;2023-04-28T16:38:53;7.28;;;2.47;;
70052;SDS011;57398;52.032;4.376;2023-04-28T16:41:41;8.30;;;2.50;;
70052;SDS011;57398;52.032;4.376;2023-04-28T16:44:30;7.87;;;2.00;;
70052;SDS011;57398;52.032;4.376;2023-04-28T16:47:18;5.43;;;1.90;;
70052;SDS011;57398;52.032;4.376;2023-04-28T16:50:07;8.68;;;2.45;;
70052;SDS011;57398;52.032;4.376;2023-04-28T16:52:56;6.20;;;2.22;;
70052;SDS011;57398;52.032;4.376;2023-04-28T16:55:46;6.40;;;2.58;;
70052;SDS011;57398;52.032;4.376;2023-04-28T16:58:34;7.63;;;3.10;;
70052;SDS011;57398;52.032;4.376;2023-04-28T17:01:22;6.13;;;2.58;;
70052;SDS011;57398;52.032;4.376;2023-04-28T17:04:10;8.85;;;3.60;;